createdAt,value
2022-11-07T00:00:23.512Z,1.30
2022-11-07T00:02:51.969Z,1.40
2022-11-07T00:05:20.235Z,1.40
2022-11-07T00:07:48.943Z,1.73
2022-11-07T00:10:18.944Z,1.80
2022-11-07T00:12:48.415Z,1.50
2022-11-07T00:15:17.260Z,1.23
2022-11-07T00:17:48.333Z,2.03
2022-11-07T00:20:17.876Z,1.90
2022-11-07T00:22:53.927Z,2.03
2022-11-07T00:25:24.535Z,9.30
2022-11-07T00:27:56.149Z,2.00
2022-11-07T00:30:24.709Z,2.23
2022-11-07T00:32:56.382Z,2.67
2022-11-07T00:35:28.737Z,3.50
2022-11-07T00:37:57.907Z,3.93
2022-11-07T00:40:28.747Z,2.23
2022-11-07T00:42:58.094Z,1.37
2022-11-07T00:45:27.182Z,1.50
2022-11-07T00:48:01.537Z,1.30
2022-11-07T00:50:31.469Z,1.60
2022-11-07T00:52:59.589Z,2.10
2022-11-07T00:55:29.442Z,1.40
2022-11-07T00:57:57.805Z,2.03
2022-11-07T01:00:27.846Z,1.27
2022-11-07T01:03:10.263Z,1.30
2022-11-07T01:05:39.198Z,1.47
2022-11-07T01:08:08.588Z,1.17
2022-11-07T01:10:42.400Z,1.53
2022-11-07T01:13:10.698Z,1.70
2022-11-07T01:15:42.785Z,4.67
2022-11-07T01:18:11.902Z,3.40
2022-11-07T01:20:41.020Z,3.00
2022-11-07T01:23:10.540Z,0.97
2022-11-07T01:25:42.111Z,2.63
2022-11-07T01:28:11.418Z,2.20
2022-11-07T01:30:40.480Z,1.43
2022-11-07T01:33:09.035Z,1.57
2022-11-07T01:35:38.879Z,1.20
2022-11-07T01:38:08.411Z,2.33
2022-11-07T01:40:57.353Z,1.27
2022-11-07T01:43:42.385Z,2.10
2022-11-07T01:46:10.857Z,1.23
2022-11-07T01:48:41.160Z,1.70
2022-11-07T01:51:09.363Z,2.10
2022-11-07T01:53:37.746Z,1.80
2022-11-07T01:56:11.477Z,2.63
2022-11-07T01:58:39.969Z,1.40
2022-11-07T02:01:08.217Z,2.80
2022-11-07T02:03:36.457Z,1.00
2022-11-07T02:06:07.896Z,1.43
2022-11-07T02:08:37.051Z,1.40
2022-11-07T02:11:08.107Z,1.20
2022-11-07T02:13:36.698Z,1.53
2022-11-07T02:16:05.833Z,1.23
2022-11-07T02:18:35.110Z,1.30
2022-11-07T02:21:06.555Z,3.60
2022-11-07T02:23:40.762Z,0.90
2022-11-07T02:26:10.313Z,1.10
2022-11-07T02:28:39.608Z,4.83
2022-11-07T02:31:07.822Z,4.30
2022-11-07T02:33:36.065Z,1.30
2022-11-07T02:36:05.027Z,1.10
2022-11-07T02:38:35.197Z,2.00
2022-11-07T02:41:06.236Z,1.50
2022-11-07T02:43:36.617Z,5.90
2022-11-07T02:46:07.976Z,2.80
2022-11-07T02:48:43.258Z,1.70
2022-11-07T02:51:11.738Z,1.50
2022-11-07T02:53:40.396Z,1.87
2022-11-07T02:56:10.189Z,1.53
2022-11-07T02:58:40.164Z,3.43
2022-11-07T03:01:09.356Z,1.50
2022-11-07T03:03:39.151Z,1.10
2022-11-07T03:06:08.697Z,1.20
2022-11-07T03:08:37.401Z,1.40
2022-11-07T03:11:06.093Z,1.10
2022-11-07T03:13:34.633Z,1.50
2022-11-07T03:16:07.712Z,1.30
2022-11-07T03:18:36.235Z,20.33
2022-11-07T03:21:05.420Z,5.13
2022-11-07T03:23:35.340Z,1.77
2022-11-07T03:26:03.482Z,1.30
2022-11-07T03:28:32.036Z,1.87
2022-11-07T03:31:01.846Z,1.10
2022-11-07T03:33:32.111Z,1.03
2022-11-07T03:36:00.695Z,1.10
2022-11-07T03:38:29.768Z,2.40
2022-11-07T03:41:00.373Z,0.93
2022-11-07T03:43:28.990Z,1.33
2022-11-07T03:45:57.917Z,0.93
2022-11-07T03:48:26.574Z,1.00
2022-11-07T03:50:56.365Z,1.13
2022-11-07T03:53:26.075Z,1.30
2022-11-07T03:55:56.307Z,1.57
2022-11-07T03:58:25.515Z,1.77
2022-11-07T04:00:53.749Z,2.67
2022-11-07T04:03:21.834Z,1.00
2022-11-07T04:05:50.044Z,3.53
2022-11-07T04:08:19.734Z,2.60
2022-11-07T04:10:48.120Z,1.80
2022-11-07T04:13:33.653Z,1.33
2022-11-07T04:16:24.925Z,1.20
2022-11-07T04:18:53.201Z,1.40
2022-11-07T04:21:21.417Z,1.30
2022-11-07T04:23:50.927Z,2.13
2022-11-07T04:26:36.220Z,1.50
2022-11-07T04:29:05.043Z,1.60
2022-11-07T04:31:34.149Z,1.90
2022-11-07T04:34:02.259Z,1.40
2022-11-07T04:36:30.866Z,0.90
2022-11-07T04:39:00.732Z,1.67
2022-11-07T04:41:31.340Z,1.57
2022-11-07T04:44:00.007Z,1.87
2022-11-07T04:46:28.544Z,1.70
2022-11-07T04:48:57.578Z,1.87
2022-11-07T04:51:26.273Z,2.70
2022-11-07T04:53:54.617Z,3.17
2022-11-07T04:56:24.309Z,1.10
2022-11-07T04:58:53.473Z,1.03
2022-11-07T05:01:22.175Z,1.50
2022-11-07T05:03:51.198Z,2.57
2022-11-07T05:06:19.468Z,2.40
2022-11-07T05:08:48.219Z,1.33
2022-11-07T05:11:16.364Z,1.20
2022-11-07T05:13:46.264Z,1.73
2022-11-07T05:16:17.126Z,1.57
2022-11-07T05:18:45.812Z,1.20
2022-11-07T05:21:14.064Z,1.03
2022-11-07T05:23:41.140Z,1.77
2022-11-07T05:26:09.310Z,3.47
2022-11-07T05:28:39.771Z,4.20
2022-11-07T05:31:10.436Z,1.60
2022-11-07T05:33:38.451Z,1.27
2022-11-07T05:36:11.247Z,1.77
2022-11-07T05:38:41.491Z,1.63
2022-11-07T05:41:09.873Z,3.20
2022-11-07T05:43:38.789Z,1.10
2022-11-07T05:46:07.978Z,2.03
2022-11-07T05:48:37.986Z,2.47
2022-11-07T05:51:06.982Z,2.30
2022-11-07T05:53:35.460Z,1.37
2022-11-07T05:56:03.918Z,1.60
2022-11-07T05:58:32.293Z,1.90
2022-11-07T06:01:04.027Z,2.70
2022-11-07T06:03:32.562Z,2.13
2022-11-07T06:06:01.939Z,2.27
2022-11-07T06:08:30.239Z,4.00
2022-11-07T06:10:58.363Z,5.10
2022-11-07T06:13:26.628Z,3.53
2022-11-07T06:15:54.657Z,1.10
2022-11-07T06:18:23.977Z,1.10
2022-11-07T06:20:51.988Z,1.73
2022-11-07T06:23:21.415Z,2.37
2022-11-07T06:25:49.890Z,1.50
2022-11-07T06:28:18.466Z,1.17
2022-11-07T06:30:48.563Z,1.57
2022-11-07T06:33:19.316Z,1.63
2022-11-07T06:35:48.313Z,1.17
2022-11-07T06:38:16.924Z,1.30
2022-11-07T06:40:46.367Z,1.50
2022-11-07T06:43:16.182Z,3.27
2022-11-07T06:45:45.399Z,1.53
2022-11-07T06:48:14.298Z,3.30
2022-11-07T06:50:42.356Z,2.13
2022-11-07T06:53:12.446Z,3.93
2022-11-07T06:55:41.524Z,3.33
2022-11-07T06:58:11.142Z,1.47
2022-11-07T07:00:39.444Z,3.00
2022-11-07T07:03:07.721Z,2.53
2022-11-07T07:05:36.424Z,2.63
2022-11-07T07:08:04.934Z,1.97
2022-11-07T07:10:33.594Z,1.63
2022-11-07T07:13:02.192Z,3.60
2022-11-07T07:15:42.380Z,3.90
2022-11-07T07:18:18.806Z,1.70
2022-11-07T07:20:46.944Z,1.53
2022-11-07T07:23:15.176Z,3.03
2022-11-07T07:25:43.278Z,2.37
2022-11-07T07:28:11.440Z,6.60
2022-11-07T07:30:41.392Z,26.13
2022-11-07T07:33:09.705Z,8.07
2022-11-07T07:35:37.742Z,4.77
2022-11-07T07:38:05.818Z,5.03
2022-11-07T07:40:34.120Z,6.10
2022-11-07T07:43:02.484Z,2.60
2022-11-07T07:45:30.453Z,4.43
2022-11-07T07:48:02.824Z,6.67
2022-11-07T07:50:30.930Z,4.33
2022-11-07T07:53:01.499Z,2.93
2022-11-07T07:55:31.633Z,2.53
2022-11-07T07:57:59.857Z,3.53
2022-11-07T08:00:28.267Z,1.83
2022-11-07T08:03:03.384Z,2.23
2022-11-07T08:05:31.808Z,2.20
2022-11-07T08:07:59.964Z,2.90
2022-11-07T08:10:41.316Z,5.20
2022-11-07T08:13:10.319Z,4.10
2022-11-07T08:15:38.910Z,1.70
2022-11-07T08:18:08.816Z,2.03
2022-11-07T08:20:37.117Z,3.60
2022-11-07T08:23:12.926Z,3.30
2022-11-07T08:25:45.466Z,2.77
2022-11-07T08:28:14.125Z,1.77
2022-11-07T08:30:42.358Z,1.73
2022-11-07T08:33:13.229Z,1.20
2022-11-07T08:35:43.040Z,1.13
2022-11-07T08:38:11.355Z,3.03
2022-11-07T08:40:39.652Z,10.17
2022-11-07T08:43:07.922Z,1.20
2022-11-07T08:45:36.268Z,2.00
2022-11-07T08:48:05.113Z,3.13
2022-11-07T08:50:34.799Z,1.40
2022-11-07T08:53:03.417Z,1.13
2022-11-07T08:55:32.986Z,1.47
2022-11-07T08:58:01.803Z,1.30
2022-11-07T09:00:31.291Z,1.43
2022-11-07T09:03:39.324Z,1.63
2022-11-07T09:05:53.081Z,2.83
2022-11-07T09:08:21.410Z,2.07
2022-11-07T09:10:49.745Z,1.67
2022-11-07T09:13:19.453Z,1.30
2022-11-07T09:15:51.501Z,1.80
2022-11-07T09:18:20.796Z,1.10
2022-11-07T09:20:49.282Z,1.43
2022-11-07T09:23:19.343Z,1.40
2022-11-07T09:25:48.324Z,1.43
2022-11-07T09:28:17.284Z,1.20
2022-11-07T09:30:46.213Z,5.43
2022-11-07T09:33:14.606Z,1.00
2022-11-07T09:35:42.940Z,3.83
2022-11-07T09:38:11.070Z,5.77
2022-11-07T09:40:47.079Z,3.20
2022-11-07T09:43:40.942Z,4.40
2022-11-07T09:46:17.641Z,4.33
2022-11-07T09:48:50.187Z,2.50
2022-11-07T09:51:28.190Z,11.87
2022-11-07T09:53:59.334Z,14.10
2022-11-07T09:56:29.569Z,9.53
2022-11-07T09:58:59.445Z,11.97
2022-11-07T10:01:30.483Z,5.50
2022-11-07T10:04:23.654Z,2.57
2022-11-07T10:06:56.982Z,1.20
2022-11-07T10:09:32.002Z,2.00
2022-11-07T10:12:10.152Z,1.67
2022-11-07T10:14:51.716Z,11.77
2022-11-07T10:17:26.421Z,4.20
2022-11-07T10:20:06.525Z,1.50
2022-11-07T10:22:46.361Z,1.50
2022-11-07T10:25:22.196Z,1.43
2022-11-07T10:28:04.100Z,1.00
2022-11-07T10:30:32.348Z,2.00
2022-11-07T10:33:06.262Z,1.73
2022-11-07T10:35:38.978Z,1.80
2022-11-07T10:38:18.178Z,2.57
2022-11-07T10:40:47.075Z,1.57
2022-11-07T10:43:24.084Z,1.00
2022-11-07T10:45:53.621Z,1.30
2022-11-07T10:48:22.851Z,2.00
2022-11-07T10:50:55.179Z,1.27
2022-11-07T10:53:25.793Z,1.47
2022-11-07T10:55:56.170Z,1.97
2022-11-07T10:58:28.375Z,2.37
2022-11-07T11:01:02.625Z,1.67
2022-11-07T11:03:43.692Z,1.20
2022-11-07T11:06:23.059Z,1.33
2022-11-07T11:08:53.036Z,2.53
2022-11-07T11:11:29.762Z,1.30
2022-11-07T11:14:16.240Z,3.10
2022-11-07T11:16:45.272Z,2.70
2022-11-07T11:19:22.316Z,1.77
2022-11-07T11:21:53.325Z,1.83
2022-11-07T11:24:33.733Z,3.03
2022-11-07T11:27:05.582Z,2.83
2022-11-07T11:29:53.104Z,3.47
2022-11-07T11:32:26.726Z,1.40
2022-11-07T11:34:59.709Z,1.57
2022-11-07T11:37:28.838Z,2.27
2022-11-07T11:40:09.418Z,1.40
2022-11-07T11:42:43.656Z,1.77
2022-11-07T11:45:18.489Z,2.30
2022-11-07T11:47:54.785Z,3.83
2022-11-07T11:50:29.013Z,2.03
2022-11-07T11:52:57.398Z,1.50
2022-11-07T11:55:29.462Z,6.30
2022-11-07T11:58:03.255Z,2.30
2022-11-07T12:00:37.930Z,3.37
2022-11-07T12:03:26.101Z,3.93
2022-11-07T12:06:18.679Z,1.53
2022-11-07T12:09:17.364Z,1.40
2022-11-07T12:11:56.014Z,1.53
2022-11-07T12:15:05.917Z,5.07
2022-11-07T12:17:41.363Z,2.60
2022-11-07T12:20:19.472Z,4.43
2022-11-07T12:23:01.727Z,1.40
2022-11-07T12:25:32.013Z,1.33
2022-11-07T12:28:08.649Z,5.87
2022-11-07T12:30:43.267Z,1.20
2022-11-07T12:33:22.367Z,1.67
2022-11-07T12:35:55.194Z,1.37
2022-11-07T12:38:54.253Z,1.90
2022-11-07T12:41:30.292Z,1.40
2022-11-07T12:44:08.162Z,5.77
2022-11-07T12:46:46.568Z,2.13
2022-11-07T12:49:38.743Z,1.57
2022-11-07T12:52:19.495Z,6.90
2022-11-07T12:54:51.423Z,3.73
2022-11-07T12:57:21.880Z,2.30
2022-11-07T12:59:54.452Z,2.07
2022-11-07T13:02:29.089Z,2.50
2022-11-07T13:05:02.247Z,2.50
2022-11-07T13:07:36.491Z,2.70
2022-11-07T13:10:10.036Z,2.07
2022-11-07T13:12:43.476Z,2.70
2022-11-07T13:15:13.181Z,3.60
2022-11-07T13:17:43.080Z,3.13
2022-11-07T13:23:16.203Z,5.63
2022-11-07T13:25:44.829Z,3.07
2022-11-07T13:28:27.967Z,2.00
2022-11-07T13:31:03.664Z,2.73
2022-11-07T13:33:37.364Z,2.30
2022-11-07T13:36:24.147Z,12.87
2022-11-07T13:39:00.957Z,5.90
2022-11-07T13:41:31.980Z,2.70
2022-11-07T13:44:02.077Z,2.37
2022-11-07T13:46:34.772Z,1.60
2022-11-07T13:49:06.682Z,1.80
2022-11-07T13:51:37.435Z,9.03
2022-11-07T13:54:14.511Z,7.60
2022-11-07T13:56:46.435Z,1.63
2022-11-07T13:59:24.811Z,1.57
2022-11-07T14:01:57.659Z,1.77
2022-11-07T14:04:29.301Z,1.57
2022-11-07T14:06:59.184Z,1.30
2022-11-07T14:09:30.387Z,4.03
2022-11-07T14:11:58.686Z,1.23
2022-11-07T14:14:28.212Z,2.77
2022-11-07T14:17:00.413Z,1.40
2022-11-07T14:19:30.557Z,4.23
2022-11-07T14:21:59.006Z,6.93
2022-11-07T14:24:33.024Z,1.20
2022-11-07T14:27:04.193Z,10.33
2022-11-07T14:29:32.922Z,6.20
2022-11-07T14:32:03.252Z,1.77
2022-11-07T14:34:31.599Z,4.20
2022-11-07T14:37:01.636Z,3.10
2022-11-07T14:39:33.436Z,2.03
2022-11-07T14:42:03.681Z,2.80
2022-11-07T14:47:28.451Z,3.70
2022-11-07T14:49:58.114Z,2.73
2022-11-07T14:52:28.557Z,8.33
2022-11-07T14:55:01.742Z,5.87
2022-11-07T14:57:30.317Z,1.83
2022-11-07T14:59:58.471Z,4.33
2022-11-07T15:02:30.622Z,4.53
2022-11-07T15:05:08.005Z,3.60
2022-11-07T15:07:48.126Z,5.20
2022-11-07T15:10:27.462Z,7.83
2022-11-07T15:12:58.715Z,4.93
2022-11-07T15:15:28.542Z,2.10
2022-11-07T15:17:58.849Z,6.10
2022-11-07T15:20:37.960Z,4.30
2022-11-07T15:23:13.100Z,7.37
2022-11-07T15:25:44.672Z,3.77
2022-11-07T15:28:20.118Z,3.23
2022-11-07T15:30:49.184Z,5.50
2022-11-07T15:33:18.885Z,3.80
2022-11-07T15:35:48.850Z,13.03
2022-11-07T15:38:20.279Z,2.80
2022-11-07T15:40:51.580Z,3.40
2022-11-07T15:43:20.096Z,5.03
2022-11-07T15:45:49.806Z,5.80
2022-11-07T15:48:20.567Z,3.40
2022-11-07T15:50:50.584Z,8.23
2022-11-07T15:53:23.858Z,3.00
2022-11-07T15:55:55.708Z,2.17
2022-11-07T15:58:25.430Z,4.77
2022-11-07T16:00:54.375Z,3.97
2022-11-07T16:03:24.803Z,4.03
2022-11-07T16:05:56.059Z,2.00
2022-11-07T16:08:26.033Z,5.20
2022-11-07T16:10:58.498Z,2.13
2022-11-07T16:13:26.833Z,6.90
2022-11-07T16:15:58.413Z,6.07
2022-11-07T16:18:27.148Z,8.00
2022-11-07T16:20:56.509Z,4.73
2022-11-07T16:23:24.937Z,5.70
2022-11-07T16:25:54.153Z,4.40
2022-11-07T16:28:26.246Z,6.63
2022-11-07T16:30:56.120Z,5.67
2022-11-07T16:33:25.272Z,12.57
2022-11-07T16:35:55.563Z,7.57
2022-11-07T16:38:24.724Z,5.43
2022-11-07T16:40:53.194Z,10.03
2022-11-07T16:43:21.839Z,15.30
2022-11-07T16:45:53.386Z,9.10
2022-11-07T16:48:24.576Z,6.03
2022-11-07T16:50:53.233Z,13.20
2022-11-07T16:53:22.299Z,15.03
2022-11-07T16:55:53.953Z,15.43
2022-11-07T16:58:27.037Z,13.37
2022-11-07T17:00:58.166Z,30.43
2022-11-07T17:03:27.380Z,18.77
2022-11-07T17:05:57.251Z,11.23
2022-11-07T17:08:28.066Z,9.93
2022-11-07T17:10:56.674Z,4.97
2022-11-07T17:13:24.849Z,5.60
2022-11-07T17:15:53.934Z,6.90
2022-11-07T17:18:25.730Z,4.07
2022-11-07T17:20:55.512Z,11.07
2022-11-07T17:23:30.227Z,7.20
2022-11-07T17:26:00.374Z,4.93
2022-11-07T17:28:36.688Z,5.90
2022-11-07T17:31:04.939Z,6.10
2022-11-07T17:33:34.789Z,4.90
2022-11-07T17:36:03.013Z,6.67
2022-11-07T17:38:31.158Z,4.17
2022-11-07T17:41:17.223Z,5.40
2022-11-07T17:43:46.084Z,8.43
2022-11-07T17:46:16.767Z,8.17
2022-11-07T17:48:47.553Z,6.20
2022-11-07T17:51:16.058Z,8.07
2022-11-07T17:53:52.253Z,7.10
2022-11-07T17:56:22.253Z,4.43
2022-11-07T17:58:53.477Z,4.83
2022-11-07T18:01:24.122Z,4.40
2022-11-07T18:03:54.869Z,6.77
2022-11-07T18:06:24.721Z,3.03
2022-11-07T18:08:55.804Z,5.60
2022-11-07T18:11:26.527Z,23.20
2022-11-07T18:13:56.272Z,7.33
2022-11-07T18:16:26.147Z,9.60
2022-11-07T18:18:56.378Z,12.07
2022-11-07T18:21:24.755Z,22.43
2022-11-07T18:23:53.337Z,72.43
2022-11-07T18:26:25.813Z,62.83
2022-11-07T18:28:55.481Z,48.27
2022-11-07T18:31:26.891Z,29.23
2022-11-07T18:33:59.217Z,27.50
2022-11-07T18:36:30.940Z,21.93
2022-11-07T18:39:02.894Z,7.60
2022-11-07T18:41:31.265Z,6.17
2022-11-07T18:44:04.530Z,4.77
2022-11-07T18:46:33.218Z,6.60
2022-11-07T18:49:03.321Z,7.23
2022-11-07T18:51:31.606Z,7.23
2022-11-07T18:54:01.652Z,4.97
2022-11-07T18:56:29.785Z,7.60
2022-11-07T18:58:58.060Z,5.90
2022-11-07T19:01:29.121Z,8.30
2022-11-07T19:03:58.716Z,12.20
2022-11-07T19:06:30.498Z,5.83
2022-11-07T19:08:59.548Z,5.70
2022-11-07T19:11:29.773Z,3.97
2022-11-07T19:14:02.198Z,4.63
2022-11-07T19:16:31.542Z,2.40
2022-11-07T19:19:00.488Z,3.67
2022-11-07T19:21:30.442Z,4.73
2022-11-07T19:23:58.466Z,7.80
2022-11-07T19:26:27.128Z,6.47
2022-11-07T19:28:55.778Z,3.57
2022-11-07T19:31:24.202Z,4.37
2022-11-07T19:33:53.497Z,4.70
2022-11-07T19:36:21.743Z,3.40
2022-11-07T19:38:51.467Z,8.23
2022-11-07T19:41:20.494Z,5.80
2022-11-07T19:43:50.239Z,5.40
2022-11-07T19:46:20.415Z,4.60
2022-11-07T19:48:49.410Z,5.43
2022-11-07T19:51:22.386Z,4.77
2022-11-07T19:53:56.830Z,6.13
2022-11-07T19:56:26.392Z,3.97
2022-11-07T19:58:55.369Z,3.30
2022-11-07T20:01:25.808Z,3.37
2022-11-07T20:03:55.114Z,4.60
2022-11-07T20:06:25.063Z,5.03
2022-11-07T20:08:53.134Z,4.13
2022-11-07T20:11:25.654Z,3.07
2022-11-07T20:13:58.640Z,5.53
2022-11-07T20:16:30.975Z,4.40
2022-11-07T20:18:59.798Z,3.60
2022-11-07T20:21:29.210Z,9.13
2022-11-07T20:23:59.646Z,4.27
2022-11-07T20:26:30.852Z,7.27
2022-11-07T20:29:00.176Z,9.20
2022-11-07T20:31:30.517Z,6.40
2022-11-07T20:34:00.459Z,3.23
2022-11-07T20:36:29.237Z,4.27
2022-11-07T20:38:58.533Z,5.20
2022-11-07T20:41:27.436Z,3.40
2022-11-07T20:43:59.935Z,3.00
2022-11-07T20:46:28.487Z,3.77
2022-11-07T20:48:57.345Z,3.73
2022-11-07T20:51:26.731Z,3.67
2022-11-07T20:53:56.235Z,6.33
2022-11-07T20:56:26.889Z,6.23
2022-11-07T20:58:58.525Z,8.90
2022-11-07T21:01:28.144Z,8.77
2022-11-07T21:03:56.453Z,53.33
2022-11-07T21:06:24.573Z,29.03
2022-11-07T21:08:53.189Z,28.60
2022-11-07T21:11:21.373Z,34.90
2022-11-07T21:13:52.988Z,9.93
2022-11-07T21:16:23.979Z,17.23
2022-11-07T21:18:53.118Z,14.70
2022-11-07T21:21:24.037Z,8.57
2022-11-07T21:23:55.272Z,5.33
2022-11-07T21:26:26.731Z,7.80
2022-11-07T21:28:55.489Z,5.80
2022-11-07T21:31:28.559Z,4.83
2022-11-07T21:33:57.676Z,7.07
2022-11-07T21:36:28.494Z,13.73
2022-11-07T21:38:57.655Z,12.17
2022-11-07T21:41:26.356Z,13.53
2022-11-07T21:43:56.826Z,8.47
2022-11-07T21:46:30.448Z,8.07
2022-11-07T21:48:59.939Z,6.63
2022-11-07T21:51:31.924Z,7.17
2022-11-07T21:54:01.544Z,6.23
2022-11-07T21:56:32.376Z,5.60
2022-11-07T21:59:02.880Z,5.07
2022-11-07T22:01:35.322Z,5.13
2022-11-07T22:04:09.439Z,4.40
2022-11-07T22:06:39.484Z,3.43
2022-11-07T22:09:08.715Z,2.87
2022-11-07T22:11:36.889Z,1.93
2022-11-07T22:14:05.836Z,2.67
2022-11-07T22:16:36.616Z,4.73
2022-11-07T22:19:12.082Z,7.07
2022-11-07T22:21:41.145Z,2.50
2022-11-07T22:24:11.324Z,3.45
2022-11-07T22:26:40.139Z,7.97
2022-11-07T22:29:08.496Z,2.90
2022-11-07T22:31:38.371Z,5.97
2022-11-07T22:34:06.754Z,9.63
2022-11-07T22:36:34.837Z,5.63
2022-11-07T22:39:03.539Z,7.67
2022-11-07T22:41:31.865Z,7.53
2022-11-07T22:44:00.015Z,5.33
2022-11-07T22:46:30.051Z,6.50
2022-11-07T22:49:00.784Z,5.20
2022-11-07T22:51:31.318Z,6.30
2022-11-07T22:54:00.708Z,4.60
2022-11-07T22:56:30.150Z,7.93
2022-11-07T22:58:58.539Z,5.37
2022-11-07T23:01:29.704Z,7.10
2022-11-07T23:04:00.665Z,20.90
2022-11-07T23:06:30.444Z,5.20
2022-11-07T23:09:00.147Z,5.60
2022-11-07T23:11:47.563Z,4.10
2022-11-07T23:14:18.376Z,4.63
2022-11-07T23:16:47.944Z,4.60
2022-11-07T23:19:19.589Z,3.67
2022-11-07T23:21:48.976Z,5.60
2022-11-07T23:24:17.279Z,5.40
2022-11-07T23:26:45.381Z,2.70
2022-11-07T23:29:15.621Z,2.67
2022-11-07T23:31:45.565Z,4.10
2022-11-07T23:34:13.817Z,2.70
2022-11-07T23:36:44.976Z,3.53
2022-11-07T23:39:15.682Z,3.17
2022-11-07T23:41:43.920Z,5.57
2022-11-07T23:44:13.185Z,5.30
2022-11-07T23:46:59.118Z,4.43
2022-11-07T23:49:44.770Z,5.40
2022-11-07T23:52:14.652Z,6.73
2022-11-07T23:55:00.279Z,7.37
2022-11-07T23:57:28.359Z,9.07
